Etusivu
METAR-TAF:

METAR-TAF

Lentoasemat :

Curaçao, Alankomaiden Antillit

Leveyspiiri: 12-12N, Pituuspiiri: 068-58W, korkeus merenpinnasta: 9 m

Tämänhetkinen sää

Tämä raportti tehtiin 49 minuuttia sitten, kello 17.00 UTC
Tuuli 9 kn idästä
Lämpötila 28°C
Kosteus 84%
Ilmanpaine 1014 hPa
Näkyvyys 10 km tai enemmän
Hajanaisia pilviä 1800 ft:n korkeudessa

METAR: TNCC 241700Z 08009KT 9999 SCT018 28/25 Q1014 NOSIG

Aika: 13:49 (17:49 UTC)

Sääennuste

Tämä raportti tehtiin 2 tuntia ja 14 minuuttia sitten, kello 15.35 UTC
Ennuste voimassa 24. päivästä klo 18 UTC - 25. päivään klo 18 UTC
Tuuli 8 kn idästä
Näkyvyys 10 km tai enemmän
Hajanaisia pilviä 1800 ft:n korkeudessa
Todennäköisyys 30% :
Ajoittain
24. päivästä klo 18 UTC - 25. päivään klo 16 UTC
Näkyvyys: 5000 m
Hajonneita pilviä 1400 ft:n korkeudessa
Hajonneita pilviä 4000 ft:n korkeudessa
vesikuuroja

TAF: TNCC 241535Z 2418/2518 10008KT 9999 SCT018 PROB30 TEMPO 2418/2516 5000 SHRA BKN014 BKN040

Säähavainnot ja -ennusteet yli 4000 lentoasemalta (METAR- ja TAF-raportit).

Käytössä olevat sääasemat on merkitty karttaan keltaisilla ja punaisilla pisteillä.

Aseta hiiri pisteen päälle nähdäksesi sääaseman nimen.

Klikkaa sitten nähdäksesi säähavainnot ja -ennusteet.

Kartan vaihtaminen: klikkaa mustalla rastilla varustettuja vihreitä pisteitä, niin voit zoomata sisään; viivalla varustettua vihreää pistettä, niin voit zoomata ulos tai vihreitä nuolia, niin pääset viereisille kartoille.


METAR-TAF: